createdAt,value
2016-05-03T00:00:27.399Z,18.87
2016-05-03T00:01:27.339Z,18.86
2016-05-03T00:02:27.341Z,18.82
2016-05-03T00:03:27.391Z,18.72
2016-05-03T00:04:27.535Z,18.86
2016-05-03T00:05:27.335Z,18.79
2016-05-03T00:06:27.524Z,18.81
2016-05-03T00:07:29.496Z,18.81
2016-05-03T00:08:27.529Z,18.84
2016-05-03T00:09:27.565Z,18.78
2016-05-03T00:10:27.379Z,18.78
2016-05-03T00:11:27.163Z,18.71
2016-05-03T00:12:27.510Z,18.71
2016-05-03T00:13:27.325Z,18.75
2016-05-03T00:14:27.312Z,18.71
2016-05-03T00:15:27.502Z,18.74
2016-05-03T00:16:27.489Z,18.72
2016-05-03T00:17:27.336Z,18.71
2016-05-03T00:18:27.495Z,18.69
2016-05-03T00:19:27.482Z,18.72
2016-05-03T00:20:27.484Z,18.72
2016-05-03T00:21:27.315Z,18.72
2016-05-03T00:22:27.068Z,18.74
2016-05-03T00:23:27.680Z,18.61
2016-05-03T00:24:27.276Z,18.68
2016-05-03T00:25:27.061Z,18.61
2016-05-03T00:26:27.268Z,18.61
2016-05-03T00:27:27.458Z,18.59
2016-05-03T00:28:27.334Z,18.66
2016-05-03T00:29:27.446Z,18.6
2016-05-03T00:30:27.437Z,18.65
2016-05-03T00:31:27.254Z,18.6
2016-05-03T00:32:27.663Z,18.68
2016-05-03T00:33:27.227Z,18.63
2016-05-03T00:34:27.229Z,18.66
2016-05-03T00:35:27.436Z,18.53
2016-05-03T00:36:27.235Z,18.56
2016-05-03T00:37:27.226Z,18.51
2016-05-03T00:38:27.072Z,18.56
2016-05-03T00:39:26.994Z,18.54
2016-05-03T00:40:27.402Z,18.57
2016-05-03T00:41:27.202Z,18.57
2016-05-03T00:42:27.236Z,18.54
2016-05-03T00:43:27.411Z,18.51
2016-05-03T00:44:27.585Z,18.53
2016-05-03T00:45:27.229Z,18.5
2016-05-03T00:46:27.387Z,18.47
2016-05-03T00:47:27.390Z,18.45
2016-05-03T00:48:27.362Z,18.53
2016-05-03T00:49:27.162Z,18.44
2016-05-03T00:50:27.383Z,18.44
2016-05-03T00:51:27.167Z,18.47
2016-05-03T00:52:27.560Z,18.53
2016-05-03T00:53:27.359Z,18.51
2016-05-03T00:54:27.362Z,18.49
2016-05-03T00:55:27.193Z,18.53
2016-05-03T00:56:27.570Z,18.53
2016-05-03T00:57:27.136Z,18.45
2016-05-03T00:58:27.139Z,18.39
2016-05-03T00:59:27.188Z,18.42
2016-05-03T01:00:27.175Z,18.38
2016-05-03T01:01:27.178Z,18.39
2016-05-03T01:02:27.336Z,18.45
2016-05-03T01:03:26.965Z,18.49
2016-05-03T01:04:27.311Z,18.5
2016-05-03T01:05:27.110Z,18.42
2016-05-03T01:06:27.520Z,18.39
2016-05-03T01:07:27.694Z,18.45
2016-05-03T01:08:27.353Z,18.5
2016-05-03T01:09:27.090Z,18.49
2016-05-03T01:10:27.188Z,18.35
2016-05-03T01:11:27.095Z,18.39
2016-05-03T01:12:27.130Z,18.31
2016-05-03T01:13:27.288Z,18.39
2016-05-03T01:14:27.478Z,18.29
2016-05-03T01:15:26.904Z,18.32
2016-05-03T01:16:27.484Z,18.32
2016-05-03T01:17:26.909Z,18.36
2016-05-03T01:18:27.114Z,18.32
2016-05-03T01:19:27.055Z,18.32
2016-05-03T01:20:27.260Z,18.35
2016-05-03T01:21:27.248Z,18.31
2016-05-03T01:22:27.578Z,18.29
2016-05-03T01:23:27.456Z,18.34
2016-05-03T01:24:27.037Z,18.38
2016-05-03T01:25:27.243Z,18.34
2016-05-03T01:26:27.276Z,18.23
2016-05-03T01:27:27.233Z,18.27
2016-05-03T01:28:27.423Z,18.2
2016-05-03T01:29:27.222Z,18.24
2016-05-03T01:30:27.022Z,18.2
2016-05-03T01:31:27.258Z,18.19
2016-05-03T01:32:27.215Z,18.24
2016-05-03T01:33:26.999Z,18.24
2016-05-03T01:34:27.205Z,18.19
2016-05-03T01:35:26.989Z,18.17
2016-05-03T01:36:27.257Z,18.2
2016-05-03T01:37:26.681Z,18.16
2016-05-03T01:38:27.044Z,18.24
2016-05-03T01:39:27.171Z,18.26
2016-05-03T01:40:27.174Z,18.23
2016-05-03T01:41:26.958Z,18.24
2016-05-03T01:42:27.180Z,18.24
2016-05-03T01:43:27.166Z,18.21
2016-05-03T01:44:27.372Z,18.24
2016-05-03T01:45:26.749Z,18.21
2016-05-03T01:46:27.377Z,18.23
2016-05-03T01:47:27.162Z,18.17
2016-05-03T01:48:26.946Z,18.14
2016-05-03T01:49:26.588Z,18.21
2016-05-03T01:50:26.779Z,18.16
2016-05-03T01:51:27.126Z,18.14
2016-05-03T01:52:27.565Z,18.16
2016-05-03T01:53:26.929Z,18.19
2016-05-03T01:54:27.321Z,18.11
2016-05-03T01:55:26.964Z,18.14
2016-05-03T01:56:27.155Z,18.14
2016-05-03T01:57:27.314Z,18.11
2016-05-03T01:58:26.894Z,18.06
2016-05-03T01:59:26.897Z,18.03
2016-05-03T02:00:26.900Z,18.11
2016-05-03T02:01:27.106Z,18.03
2016-05-03T02:02:26.577Z,18.08
2016-05-03T02:03:27.095Z,18.08
2016-05-03T02:04:26.879Z,18.13
2016-05-03T02:05:27.086Z,18.1
2016-05-03T02:06:27.073Z,18.13
2016-05-03T02:07:27.136Z,18.17
2016-05-03T02:08:27.281Z,18.17
2016-05-03T02:09:27.064Z,18.14
2016-05-03T02:10:26.895Z,18.16
2016-05-03T02:11:27.086Z,18.19
2016-05-03T02:12:26.838Z,18.11
2016-05-03T02:13:27.107Z,18.1
2016-05-03T02:14:27.047Z,18.06
2016-05-03T02:15:27.252Z,18.06
2016-05-03T02:16:27.036Z,18.08
2016-05-03T02:17:26.836Z,18.06
2016-05-03T02:18:26.823Z,18.08
2016-05-03T02:19:27.029Z,18.1
2016-05-03T02:20:27.063Z,18.08
2016-05-03T02:21:26.863Z,18.06
2016-05-03T02:22:27.021Z,18.08
2016-05-03T02:23:27.212Z,18.08
2016-05-03T02:24:26.995Z,18.05
2016-05-03T02:25:26.998Z,18.05
2016-05-03T02:26:27.204Z,18.01
2016-05-03T02:27:26.988Z,18.06
2016-05-03T02:28:26.990Z,18.06
2016-05-03T02:29:26.681Z,18.06
2016-05-03T02:30:27.184Z,18.08
2016-05-03T02:31:26.968Z,18.1
2016-05-03T02:32:26.611Z,18.01
2016-05-03T02:33:26.597Z,18.02
2016-05-03T02:34:26.617Z,18.03
2016-05-03T02:35:26.962Z,18.02
2016-05-03T02:36:26.403Z,18.02
2016-05-03T02:37:27.342Z,18.02
2016-05-03T02:38:26.737Z,18.01
2016-05-03T02:39:27.145Z,18.02
2016-05-03T02:40:26.929Z,18.01
2016-05-03T02:41:26.947Z,17.99
2016-05-03T02:42:26.935Z,17.99
2016-05-03T02:43:26.578Z,17.96
2016-05-03T02:44:26.769Z,17.95
2016-05-03T02:45:27.114Z,17.95
2016-05-03T02:46:26.555Z,17.94
2016-05-03T02:47:26.761Z,17.87
2016-05-03T02:48:26.701Z,17.9
2016-05-03T02:49:26.750Z,17.9
2016-05-03T02:50:26.690Z,17.98
2016-05-03T02:51:27.100Z,17.94
2016-05-03T02:52:27.555Z,17.87
2016-05-03T02:53:26.683Z,17.9
2016-05-03T02:54:26.686Z,17.9
2016-05-03T02:55:26.674Z,17.98
2016-05-03T02:56:26.879Z,17.94
2016-05-03T02:57:26.866Z,17.88
2016-05-03T02:58:27.072Z,17.98
2016-05-03T02:59:26.856Z,17.94
2016-05-03T03:00:26.655Z,17.94
2016-05-03T03:01:26.845Z,17.92
2016-05-03T03:02:26.489Z,17.88
2016-05-03T03:03:26.445Z,17.92
2016-05-03T03:04:26.682Z,17.94
2016-05-03T03:05:27.043Z,17.9
2016-05-03T03:06:26.828Z,17.99
2016-05-03T03:07:26.628Z,17.86
2016-05-03T03:08:27.036Z,17.84
2016-05-03T03:09:26.663Z,17.86
2016-05-03T03:10:26.807Z,17.8
2016-05-03T03:11:27.013Z,17.83
2016-05-03T03:12:26.609Z,17.8
2016-05-03T03:13:26.596Z,17.88
2016-05-03T03:14:26.787Z,17.77
2016-05-03T03:15:26.992Z,17.8
2016-05-03T03:16:26.792Z,17.8
2016-05-03T03:17:26.983Z,17.79
2016-05-03T03:18:26.782Z,17.88
2016-05-03T03:19:26.785Z,17.81
2016-05-03T03:20:26.974Z,17.86
2016-05-03T03:21:26.977Z,17.84
2016-05-03T03:22:26.777Z,17.77
2016-05-03T03:23:26.202Z,17.83
2016-05-03T03:24:26.594Z,17.79
2016-05-03T03:25:26.551Z,17.76
2016-05-03T03:26:26.756Z,17.81
2016-05-03T03:27:26.384Z,17.79
2016-05-03T03:28:26.574Z,17.81
2016-05-03T03:29:26.530Z,17.77
2016-05-03T03:30:26.721Z,17.76
2016-05-03T03:31:26.568Z,17.77
2016-05-03T03:32:26.741Z,17.71
2016-05-03T03:33:26.526Z,17.68
2016-05-03T03:34:26.918Z,17.73
2016-05-03T03:35:26.906Z,17.66
2016-05-03T03:36:26.549Z,17.69
2016-05-03T03:37:26.504Z,17.73
2016-05-03T03:38:26.679Z,17.71
2016-05-03T03:39:26.698Z,17.69
2016-05-03T03:40:26.684Z,17.66
2016-05-03T03:41:26.672Z,17.69
2016-05-03T03:42:26.472Z,17.66
2016-05-03T03:43:26.475Z,17.69
2016-05-03T03:44:26.478Z,17.69
2016-05-03T03:45:26.463Z,17.71
2016-05-03T03:46:26.341Z,17.68
2016-05-03T03:47:26.641Z,17.69
2016-05-03T03:48:26.456Z,17.65
2016-05-03T03:49:26.443Z,17.69
2016-05-03T03:50:26.681Z,17.77
2016-05-03T03:51:26.433Z,17.76
2016-05-03T03:52:26.655Z,17.65
2016-05-03T03:53:26.844Z,17.68
2016-05-03T03:54:26.613Z,17.73
2016-05-03T03:55:26.412Z,17.71
2016-05-03T03:56:26.822Z,17.74
2016-05-03T03:57:26.199Z,17.73
2016-05-03T03:58:26.607Z,17.71
2016-05-03T03:59:26.813Z,17.74
2016-05-03T04:00:26.395Z,17.69
2016-05-03T04:01:26.585Z,17.69
2016-05-03T04:02:26.791Z,17.68
2016-05-03T04:03:26.590Z,17.66
2016-05-03T04:04:26.171Z,17.68
2016-05-03T04:05:26.065Z,17.63
2016-05-03T04:06:26.208Z,17.71
2016-05-03T04:07:27.648Z,17.69
2016-05-03T04:08:26.353Z,17.63
2016-05-03T04:09:26.559Z,17.66
2016-05-03T04:10:26.750Z,17.66
2016-05-03T04:11:26.565Z,17.6
2016-05-03T04:12:26.396Z,17.6
2016-05-03T04:13:26.540Z,17.52
2016-05-03T04:14:26.588Z,17.66
2016-05-03T04:15:26.528Z,17.52
2016-05-03T04:16:26.531Z,17.52
2016-05-03T04:17:26.316Z,17.55
2016-05-03T04:18:26.725Z,17.57
2016-05-03T04:19:26.508Z,17.52
2016-05-03T04:20:26.308Z,17.63
2016-05-03T04:21:26.299Z,17.54
2016-05-03T04:22:26.411Z,17.54
2016-05-03T04:23:26.648Z,17.58
2016-05-03T04:24:26.838Z,17.57
2016-05-03T04:25:26.669Z,17.55
2016-05-03T04:26:26.730Z,17.6
2016-05-03T04:27:26.719Z,17.55
2016-05-03T04:28:26.580Z,17.52
2016-05-03T04:29:26.397Z,17.52
2016-05-03T04:30:26.760Z,17.62
2016-05-03T04:31:26.419Z,17.57
2016-05-03T04:32:26.567Z,17.65
2016-05-03T04:33:26.577Z,17.57
2016-05-03T04:34:26.586Z,17.5
2016-05-03T04:35:26.064Z,17.49
2016-05-03T04:36:26.790Z,17.5
2016-05-03T04:37:27.124Z,17.5
2016-05-03T04:38:26.988Z,17.52
2016-05-03T04:39:26.820Z,17.45
2016-05-03T04:40:26.608Z,17.49
2016-05-03T04:41:26.769Z,17.57
2016-05-03T04:42:26.819Z,17.49
2016-05-03T04:43:26.963Z,17.52
2016-05-03T04:44:26.560Z,17.47
2016-05-03T04:45:26.392Z,17.52
2016-05-03T04:46:26.755Z,17.45
2016-05-03T04:47:26.945Z,17.49
2016-05-03T04:48:26.745Z,17.43
2016-05-03T04:49:26.935Z,17.5
2016-05-03T04:50:26.938Z,17.46
2016-05-03T04:51:26.926Z,17.52
2016-05-03T04:52:26.757Z,17.49
2016-05-03T04:53:26.525Z,17.45
2016-05-03T04:54:26.528Z,17.43
2016-05-03T04:55:26.562Z,17.45
2016-05-03T04:56:26.518Z,17.45
2016-05-03T04:57:26.692Z,17.47
2016-05-03T04:58:26.898Z,17.4
2016-05-03T04:59:26.713Z,17.39
2016-05-03T05:00:26.544Z,17.46
2016-05-03T05:01:26.687Z,17.46
2016-05-03T05:02:26.690Z,17.49
2016-05-03T05:03:26.881Z,17.4
2016-05-03T05:04:26.273Z,17.42
2016-05-03T05:05:26.667Z,17.45
2016-05-03T05:06:26.653Z,17.46
2016-05-03T05:07:26.984Z,17.45
2016-05-03T05:08:26.659Z,17.42
2016-05-03T05:09:26.459Z,17.46
2016-05-03T05:10:26.649Z,17.47
2016-05-03T05:11:26.495Z,17.4
2016-05-03T05:12:26.623Z,17.38
2016-05-03T05:13:26.422Z,17.47
2016-05-03T05:14:26.628Z,17.4
2016-05-03T05:15:26.491Z,17.45
2016-05-03T05:16:26.258Z,17.38
2016-05-03T05:17:26.418Z,17.4
2016-05-03T05:18:26.452Z,17.47
2016-05-03T05:19:26.595Z,17.46
2016-05-03T05:20:26.238Z,17.42
2016-05-03T05:21:26.804Z,17.39
2016-05-03T05:22:26.588Z,17.47
2016-05-03T05:23:26.199Z,17.35
2016-05-03T05:24:26.780Z,17.43
2016-05-03T05:25:26.580Z,17.38
2016-05-03T05:26:26.364Z,17.39
2016-05-03T05:27:26.007Z,17.39
2016-05-03T05:28:26.353Z,17.46
2016-05-03T05:29:26.356Z,17.32
2016-05-03T05:30:26.203Z,17.38
2016-05-03T05:31:26.190Z,17.38
2016-05-03T05:32:26.536Z,17.39
2016-05-03T05:33:26.539Z,17.32
2016-05-03T05:34:26.526Z,17.42
2016-05-03T05:35:26.575Z,17.38
2016-05-03T05:36:26.375Z,17.31
2016-05-03T05:37:26.331Z,17.32
2016-05-03T05:38:26.505Z,17.31
2016-05-03T05:39:26.509Z,17.38
2016-05-03T05:40:26.495Z,17.35
2016-05-03T05:41:26.154Z,17.35
2016-05-03T05:42:26.500Z,17.36
2016-05-03T05:43:26.488Z,17.32
2016-05-03T05:44:26.474Z,17.31
2016-05-03T05:45:26.290Z,17.25
2016-05-03T05:46:26.464Z,17.36
2016-05-03T05:47:26.311Z,17.32
2016-05-03T05:48:26.251Z,17.31
2016-05-03T05:49:26.269Z,17.31
2016-05-03T05:50:26.444Z,17.27
2016-05-03T05:51:26.666Z,17.22
2016-05-03T05:52:26.449Z,17.24
2016-05-03T05:53:26.233Z,17.22
2016-05-03T05:54:26.424Z,17.24
2016-05-03T05:55:26.238Z,17.28
2016-05-03T05:56:26.070Z,17.3
2016-05-03T05:57:26.010Z,17.25
2016-05-03T05:58:26.262Z,17.24
2016-05-03T05:59:26.406Z,17.22
2016-05-03T06:00:26.049Z,17.18
2016-05-03T06:01:26.395Z,17.27
2016-05-03T06:02:26.195Z,17.28
2016-05-03T06:03:26.400Z,17.25
2016-05-03T06:04:26.388Z,17.25
2016-05-03T06:05:26.376Z,17.15
2016-05-03T06:06:26.175Z,17.24
2016-05-03T06:07:27.130Z,17.24
2016-05-03T06:08:26.164Z,17.15
2016-05-03T06:09:26.355Z,17.25
2016-05-03T06:10:26.170Z,17.21
2016-05-03T06:11:26.157Z,17.13
2016-05-03T06:12:26.347Z,17.12
2016-05-03T06:13:26.333Z,17.18
2016-05-03T06:14:26.134Z,17.18
2016-05-03T06:15:26.371Z,17.15
2016-05-03T06:16:26.311Z,17.21
2016-05-03T06:17:25.752Z,17.18
2016-05-03T06:18:26.520Z,17.2
2016-05-03T06:19:26.522Z,17.12
2016-05-03T06:20:25.947Z,17.17
2016-05-03T06:21:26.090Z,17.12
2016-05-03T06:22:28.093Z,17.13
2016-05-03T06:23:26.486Z,17.15
2016-05-03T06:24:26.130Z,17.1
2016-05-03T06:25:26.304Z,17.12
2016-05-03T06:26:25.759Z,17.09
2016-05-03T06:27:25.763Z,17.15
2016-05-03T06:28:26.062Z,17.09
2016-05-03T06:29:26.065Z,17.09
2016-05-03T06:30:26.255Z,17.12
2016-05-03T06:31:26.070Z,17.12
2016-05-03T06:32:26.245Z,17.1
2016-05-03T06:33:26.045Z,17.12
2016-05-03T06:34:25.890Z,17.07
2016-05-03T06:35:26.237Z,17.1
2016-05-03T06:36:26.224Z,17.09
2016-05-03T06:37:26.587Z,17.07
2016-05-03T06:38:26.057Z,17.12
2016-05-03T06:39:26.404Z,17.05
2016-05-03T06:40:26.047Z,17.05
2016-05-03T06:41:26.003Z,17.05
2016-05-03T06:42:25.990Z,17.06
2016-05-03T06:43:26.400Z,16.99
2016-05-03T06:44:26.183Z,17.03
2016-05-03T06:45:25.982Z,16.99
2016-05-03T06:46:25.985Z,17.05
2016-05-03T06:47:26.175Z,16.95
2016-05-03T06:48:26.163Z,17
2016-05-03T06:49:26.213Z,17.05
2016-05-03T06:50:25.949Z,16.97
2016-05-03T06:51:26.155Z,16.97
2016-05-03T06:52:27.299Z,17.02
2016-05-03T06:53:25.738Z,17
2016-05-03T06:54:26.147Z,16.97
2016-05-03T06:55:26.337Z,17.02
2016-05-03T06:56:26.325Z,16.92
2016-05-03T06:57:26.327Z,16.92
2016-05-03T06:58:26.174Z,16.97
2016-05-03T06:59:26.318Z,16.95
2016-05-03T07:00:25.898Z,16.95
2016-05-03T07:01:25.698Z,16.95
2016-05-03T07:02:26.107Z,16.92
2016-05-03T07:03:25.734Z,16.94
2016-05-03T07:04:26.081Z,16.94
2016-05-03T07:05:25.865Z,16.94
2016-05-03T07:06:26.087Z,16.95
2016-05-03T07:07:26.276Z,16.94
2016-05-03T07:08:26.107Z,16.99
2016-05-03T07:09:26.078Z,16.92
2016-05-03T07:10:25.644Z,17
2016-05-03T07:11:26.256Z,16.94
2016-05-03T07:12:26.040Z,16.92
2016-05-03T07:13:26.246Z,16.81
2016-05-03T07:14:26.030Z,16.88
2016-05-03T07:15:25.814Z,16.94
2016-05-03T07:16:25.628Z,16.9
2016-05-03T07:17:26.209Z,16.92
2016-05-03T07:18:26.228Z,16.88
2016-05-03T07:19:26.043Z,16.9
2016-05-03T07:20:25.999Z,16.99
2016-05-03T07:21:26.002Z,16.91
2016-05-03T07:22:25.661Z,16.87
2016-05-03T07:23:25.569Z,16.92
2016-05-03T07:24:25.994Z,16.85
2016-05-03T07:25:25.575Z,16.9
2016-05-03T07:26:25.968Z,16.95
2016-05-03T07:27:26.002Z,16.92
2016-05-03T07:28:25.957Z,16.94
2016-05-03T07:29:25.946Z,16.88
2016-05-03T07:30:25.744Z,17.02
2016-05-03T07:31:25.935Z,17.05
2016-05-03T07:32:25.938Z,16.9
2016-05-03T07:33:26.127Z,16.91
2016-05-03T07:34:25.927Z,16.9
2016-05-03T07:35:25.523Z,16.94
2016-05-03T07:36:25.714Z,16.95
2016-05-03T07:37:25.779Z,16.92
2016-05-03T07:38:25.719Z,16.9
2016-05-03T07:39:25.910Z,16.92
2016-05-03T07:40:25.740Z,16.92
2016-05-03T07:41:25.884Z,16.94
2016-05-03T07:42:25.934Z,16.92
2016-05-03T07:43:25.889Z,16.99
2016-05-03T07:44:25.720Z,16.92
2016-05-03T07:45:25.909Z,16.91
2016-05-03T07:46:25.662Z,16.84
2016-05-03T07:47:25.665Z,16.92
2016-05-03T07:48:26.075Z,16.85
2016-05-03T07:49:26.061Z,16.85
2016-05-03T07:50:25.486Z,16.91
2016-05-03T07:51:25.645Z,16.97
2016-05-03T07:52:26.225Z,16.91
2016-05-03T07:53:25.963Z,16.99
2016-05-03T07:54:25.825Z,16.92
2016-05-03T07:55:25.609Z,16.92
2016-05-03T07:56:26.018Z,16.88
2016-05-03T07:57:25.801Z,16.9
2016-05-03T07:58:26.007Z,16.92
2016-05-03T07:59:25.791Z,16.97
2016-05-03T08:00:25.435Z,16.97
2016-05-03T08:01:25.985Z,16.92
2016-05-03T08:02:25.394Z,16.88
2016-05-03T08:03:25.771Z,16.97
2016-05-03T08:04:25.821Z,16.88
2016-05-03T08:05:25.761Z,16.94
2016-05-03T08:06:25.966Z,16.87
2016-05-03T08:07:25.969Z,16.92
2016-05-03T08:08:25.754Z,16.84
2016-05-03T08:09:25.959Z,16.87
2016-05-03T08:10:25.523Z,16.87
2016-05-03T08:11:25.949Z,16.85
2016-05-03T08:12:25.936Z,16.94
2016-05-03T08:13:25.734Z,16.87
2016-05-03T08:14:25.770Z,16.87
2016-05-03T08:15:25.365Z,16.88
2016-05-03T08:16:25.509Z,16.84
2016-05-03T08:17:25.512Z,16.85
2016-05-03T08:18:25.530Z,16.88
2016-05-03T08:19:25.689Z,16.9
2016-05-03T08:20:25.691Z,16.97
2016-05-03T08:21:25.678Z,16.87
2016-05-03T08:22:25.681Z,16.88
2016-05-03T08:23:25.466Z,16.88
2016-05-03T08:24:25.311Z,16.88
2016-05-03T08:25:25.502Z,16.88
2016-05-03T08:26:25.255Z,16.91
2016-05-03T08:27:25.241Z,16.94
2016-05-03T08:28:25.650Z,16.85
2016-05-03T08:29:25.638Z,16.94
2016-05-03T08:30:25.891Z,16.9
2016-05-03T08:31:25.471Z,16.88
2016-05-03T08:32:25.443Z,16.9
2016-05-03T08:33:25.632Z,16.87
2016-05-03T08:34:25.604Z,16.92
2016-05-03T08:35:25.404Z,16.9
2016-05-03T08:36:25.453Z,16.92
2016-05-03T08:37:25.799Z,16.95
2016-05-03T08:38:25.802Z,16.9
2016-05-03T08:39:25.586Z,16.97
2016-05-03T08:40:25.214Z,16.92
2016-05-03T08:41:25.779Z,16.91
2016-05-03T08:42:25.359Z,16.92
2016-05-03T08:43:25.565Z,16.9
2016-05-03T08:44:25.757Z,16.88
2016-05-03T08:45:25.415Z,16.9
2016-05-03T08:46:25.386Z,16.91
2016-05-03T08:47:25.390Z,16.92
2016-05-03T08:48:25.533Z,16.88
2016-05-03T08:49:25.519Z,16.94
2016-05-03T08:50:25.522Z,16.91
2016-05-03T08:51:25.119Z,16.9
2016-05-03T08:52:26.386Z,17.02
2016-05-03T08:53:25.717Z,16.85
2016-05-03T08:54:25.142Z,16.92
2016-05-03T08:55:25.145Z,16.85
2016-05-03T08:56:25.492Z,16.9
2016-05-03T08:57:25.166Z,16.92
2016-05-03T08:58:25.294Z,16.9
2016-05-03T08:59:25.672Z,16.9
2016-05-03T09:00:26.221Z,16.9
2016-05-03T09:01:25.271Z,16.94
2016-05-03T09:02:25.101Z,16.9
2016-05-03T09:03:25.448Z,16.92
2016-05-03T09:04:25.654Z,16.94
2016-05-03T09:05:25.079Z,16.88
2016-05-03T09:06:25.440Z,16.91
2016-05-03T09:07:25.443Z,16.9
2016-05-03T09:08:25.087Z,16.87
2016-05-03T09:09:25.260Z,16.91
2016-05-03T09:10:25.404Z,16.92
2016-05-03T09:11:25.407Z,16.9
2016-05-03T09:12:25.004Z,16.91
2016-05-03T09:13:25.412Z,16.92
2016-05-03T09:14:25.196Z,16.87
2016-05-03T09:15:25.589Z,16.87
2016-05-03T09:16:24.826Z,16.91
2016-05-03T09:17:24.970Z,16.9
2016-05-03T09:18:25.159Z,16.92
2016-05-03T09:19:25.178Z,16.88
2016-05-03T09:20:25.165Z,16.91
2016-05-03T09:21:25.355Z,16.94
2016-05-03T09:22:25.405Z,16.91
2016-05-03T09:23:24.986Z,16.9
2016-05-03T09:24:25.551Z,16.9
2016-05-03T09:25:25.178Z,16.9
2016-05-03T09:26:25.135Z,16.84
2016-05-03T09:27:25.341Z,16.88
2016-05-03T09:28:25.328Z,16.97
2016-05-03T09:29:25.096Z,16.95
2016-05-03T09:30:25.521Z,16.97
2016-05-03T09:31:25.304Z,16.99
2016-05-03T09:32:25.307Z,16.92
2016-05-03T09:33:24.949Z,16.92
2016-05-03T09:34:25.500Z,17.03
2016-05-03T09:35:25.127Z,16.99
2016-05-03T09:36:25.271Z,16.97
2016-05-03T09:37:25.274Z,17.05
2016-05-03T09:38:25.260Z,17.05
2016-05-03T09:39:25.263Z,17.05
2016-05-03T09:40:24.844Z,17.02
2016-05-03T09:41:25.456Z,17
2016-05-03T09:42:24.928Z,17.06
2016-05-03T09:43:25.024Z,17.05
2016-05-03T09:44:25.230Z,17.12
2016-05-03T09:45:25.029Z,17.09
2016-05-03T09:46:25.095Z,17.09
2016-05-03T09:47:25.020Z,17.1
2016-05-03T09:48:25.444Z,17.18
2016-05-03T09:49:24.993Z,17.17
2016-05-03T09:50:25.417Z,17.1
2016-05-03T09:51:24.843Z,17.24
2016-05-03T09:52:25.001Z,17.21
2016-05-03T09:53:25.394Z,17.17
2016-05-03T09:54:24.976Z,17.22
2016-05-03T09:55:25.369Z,17.13
2016-05-03T09:56:24.966Z,17.22
2016-05-03T09:57:25.156Z,17.22
2016-05-03T09:58:25.158Z,17.12
2016-05-03T09:59:24.989Z,17.24
2016-05-03T10:00:25.194Z,17.24
2016-05-03T10:01:25.151Z,17.25
2016-05-03T10:02:24.935Z,17.24
2016-05-03T10:03:24.921Z,17.27
2016-05-03T10:04:24.737Z,17.2
2016-05-03T10:05:25.115Z,17.22
2016-05-03T10:06:24.929Z,17.24
2016-05-03T10:07:24.901Z,17.25
2016-05-03T10:08:25.310Z,17.25
2016-05-03T10:09:25.296Z,17.25
2016-05-03T10:10:25.299Z,17.3
2016-05-03T10:11:24.943Z,17.22
2016-05-03T10:12:25.290Z,17.27
2016-05-03T10:13:24.870Z,17.28
2016-05-03T10:14:24.857Z,17.27
2016-05-03T10:15:25.063Z,17.24
2016-05-03T10:16:24.754Z,17.25
2016-05-03T10:17:24.693Z,17.25
2016-05-03T10:18:25.056Z,17.3
2016-05-03T10:19:24.480Z,17.15
2016-05-03T10:20:25.031Z,17.22
2016-05-03T10:21:25.033Z,17.21
2016-05-03T10:22:24.878Z,17.28
2016-05-03T10:23:25.225Z,17.25
2016-05-03T10:24:24.853Z,17.21
2016-05-03T10:25:24.809Z,17.24
2016-05-03T10:26:24.453Z,17.27
2016-05-03T10:27:25.002Z,17.31
2016-05-03T10:28:25.192Z,17.35
2016-05-03T10:29:25.195Z,17.35
2016-05-03T10:30:24.619Z,17.28
2016-05-03T10:31:24.981Z,17.21
2016-05-03T10:32:24.969Z,17.35
2016-05-03T10:33:24.783Z,17.35
2016-05-03T10:34:24.599Z,17.25
2016-05-03T10:35:24.758Z,17.32
2016-05-03T10:36:25.183Z,17.3
2016-05-03T10:37:25.013Z,17.3
2016-05-03T10:38:24.750Z,17.36
2016-05-03T10:39:24.941Z,17.3
2016-05-03T10:40:24.724Z,17.27
2016-05-03T10:41:24.727Z,17.38
2016-05-03T10:42:24.715Z,17.31
2016-05-03T10:43:25.123Z,17.35
2016-05-03T10:44:24.720Z,17.31
2016-05-03T10:45:24.910Z,17.4
2016-05-03T10:46:24.896Z,17.35
2016-05-03T10:47:24.493Z,17.4
2016-05-03T10:48:24.683Z,17.32
2016-05-03T10:49:24.904Z,17.43
2016-05-03T10:50:24.876Z,17.47
2016-05-03T10:51:24.676Z,17.46
2016-05-03T10:52:24.679Z,17.43
2016-05-03T10:53:25.072Z,17.43
2016-05-03T10:54:24.652Z,17.42
2016-05-03T10:55:24.656Z,17.39
2016-05-03T10:56:24.658Z,17.45
2016-05-03T10:57:24.442Z,17.46
2016-05-03T10:58:24.648Z,17.49
2016-05-03T10:59:24.838Z,17.46
2016-05-03T11:00:25.044Z,17.45
2016-05-03T11:01:25.031Z,17.49
2016-05-03T11:02:24.830Z,17.62
2016-05-03T11:03:24.614Z,17.57
2016-05-03T11:04:24.445Z,17.5
2016-05-03T11:05:24.807Z,17.54
2016-05-03T11:06:24.388Z,17.47
2016-05-03T11:07:24.594Z,17.45
2016-05-03T11:08:24.643Z,17.57
2016-05-03T11:09:24.991Z,17.57
2016-05-03T11:10:24.790Z,17.55
2016-05-03T11:11:24.979Z,17.62
2016-05-03T11:12:24.780Z,17.49
2016-05-03T11:13:24.968Z,17.57
2016-05-03T11:14:24.768Z,17.63
2016-05-03T11:15:24.553Z,17.68
2016-05-03T11:16:24.587Z,17.68
2016-05-03T11:17:24.543Z,17.65
2016-05-03T11:18:24.951Z,17.69
2016-05-03T11:19:24.329Z,17.79
2016-05-03T11:20:24.722Z,17.66
2016-05-03T11:21:24.726Z,17.66
2016-05-03T11:22:24.728Z,17.71
2016-05-03T11:23:24.590Z,17.65
2016-05-03T11:24:24.546Z,17.74
2016-05-03T11:25:24.705Z,17.74
2016-05-03T11:26:24.692Z,17.69
2016-05-03T11:27:24.492Z,17.73
2016-05-03T11:28:24.541Z,17.71
2016-05-03T11:29:24.684Z,17.79
2016-05-03T11:30:24.469Z,17.79
2016-05-03T11:31:24.674Z,17.83
2016-05-03T11:32:24.864Z,17.86
2016-05-03T11:33:24.552Z,17.81
2016-05-03T11:34:24.869Z,17.84
2016-05-03T11:35:24.447Z,17.95
2016-05-03T11:36:24.860Z,17.86
2016-05-03T11:37:24.844Z,17.94
2016-05-03T11:38:24.424Z,17.98
2016-05-03T11:39:24.630Z,17.88
2016-05-03T11:40:24.430Z,17.87
2016-05-03T11:41:24.260Z,17.9
2016-05-03T11:42:24.202Z,17.94
2016-05-03T11:43:24.407Z,17.92
2016-05-03T11:44:24.207Z,17.9
2016-05-03T11:45:24.397Z,17.98
2016-05-03T11:46:24.243Z,17.96
2016-05-03T11:47:24.448Z,17.92
2016-05-03T11:48:24.389Z,17.94
2016-05-03T11:49:24.423Z,17.88
2016-05-03T11:50:24.379Z,17.9
2016-05-03T11:51:24.569Z,17.92
2016-05-03T11:52:24.556Z,17.9
2016-05-03T11:53:24.153Z,17.92
2016-05-03T11:54:24.201Z,17.94
2016-05-03T11:55:24.190Z,17.88
2016-05-03T11:56:24.551Z,17.9
2016-05-03T11:57:24.585Z,17.98
2016-05-03T11:58:24.337Z,17.96
2016-05-03T11:59:24.372Z,17.99
2016-05-03T12:00:24.531Z,17.92
2016-05-03T12:01:24.736Z,17.88
2016-05-03T12:02:24.521Z,18.02
2016-05-03T12:03:24.726Z,18.01
2016-05-03T12:04:24.713Z,17.88
2016-05-03T12:05:24.497Z,18.01
2016-05-03T12:06:24.344Z,18.01
2016-05-03T12:07:24.487Z,17.99
2016-05-03T12:08:24.694Z,17.96
2016-05-03T12:09:24.492Z,18.02
2016-05-03T12:10:24.480Z,18.01
2016-05-03T12:11:24.483Z,17.94
2016-05-03T12:12:24.250Z,17.99
2016-05-03T12:13:24.660Z,18.02
2016-05-03T12:14:24.037Z,18.03
2016-05-03T12:15:24.509Z,18.06
2016-05-03T12:16:24.636Z,17.99
2016-05-03T12:17:24.248Z,18.03
2016-05-03T12:18:24.454Z,18.01
2016-05-03T12:19:24.223Z,18.05
2016-05-03T12:20:24.632Z,18.02
2016-05-03T12:21:24.432Z,17.99
2016-05-03T12:22:24.621Z,18.06
2016-05-03T12:23:31.283Z,18.05
2016-05-03T12:24:24.627Z,18.02
2016-05-03T12:25:24.396Z,18.05
2016-05-03T12:26:24.601Z,18.1
2016-05-03T12:27:24.400Z,18.06
2016-05-03T12:28:24.590Z,18.1
2016-05-03T12:29:24.390Z,18.08
2016-05-03T12:30:24.173Z,18.11
2016-05-03T12:31:24.583Z,18.08
2016-05-03T12:32:24.367Z,18.11
2016-05-03T12:33:24.370Z,18.08
2016-05-03T12:34:24.170Z,18.1
2016-05-03T12:35:24.359Z,18.11
2016-05-03T12:36:24.393Z,18.11
2016-05-03T12:37:24.146Z,18.05
2016-05-03T12:38:24.539Z,18.11
2016-05-03T12:39:24.542Z,18.11
2016-05-03T12:40:24.326Z,18.03
2016-05-03T12:41:24.328Z,18.06
2016-05-03T12:42:23.800Z,18.1
2016-05-03T12:43:24.302Z,18.08
2016-05-03T12:44:24.118Z,18.17
2016-05-03T12:45:24.104Z,18.16
2016-05-03T12:46:24.296Z,18.1
2016-05-03T12:47:24.095Z,18.1
2016-05-03T12:48:23.707Z,18.1
2016-05-03T12:49:24.350Z,18.13
2016-05-03T12:50:24.321Z,18.1
2016-05-03T12:51:24.324Z,18.13
2016-05-03T12:52:24.717Z,18.2
2016-05-03T12:53:24.314Z,18.14
2016-05-03T12:54:24.035Z,18.16
2016-05-03T12:55:24.069Z,18.11